createdAt,value
2023-05-14T00:00:57.220Z,10.17
2023-05-14T00:06:04.715Z,10.07
2023-05-14T00:11:12.202Z,9.99
2023-05-14T00:16:19.512Z,9.91
2023-05-14T00:21:26.949Z,9.82
2023-05-14T00:26:34.541Z,9.74
2023-05-14T00:31:41.887Z,9.67
2023-05-14T00:36:49.570Z,9.60
2023-05-14T00:41:57.092Z,9.54
2023-05-14T00:47:05.179Z,9.47
2023-05-14T00:52:14.735Z,9.39
2023-05-14T00:57:22.770Z,9.32
2023-05-14T01:02:30.252Z,9.25
2023-05-14T01:07:51.245Z,9.19
2023-05-14T01:13:05.850Z,9.11
2023-05-14T01:18:15.729Z,9.04
2023-05-14T01:23:23.603Z,8.97
2023-05-14T01:28:35.777Z,8.91
2023-05-14T01:33:45.081Z,8.83
2023-05-14T01:38:53.561Z,8.77
2023-05-14T01:44:01.340Z,8.70
2023-05-14T01:49:09.003Z,8.64
2023-05-14T01:54:16.492Z,8.57
2023-05-14T01:59:23.749Z,8.50
2023-05-14T02:04:31.038Z,8.43
2023-05-14T02:09:38.365Z,8.36
2023-05-14T02:14:46.447Z,8.30
2023-05-14T02:19:53.967Z,8.23
2023-05-14T02:25:01.519Z,8.16
2023-05-14T02:30:10.684Z,8.10
2023-05-14T02:35:19.531Z,8.03
2023-05-14T02:40:27.095Z,7.96
2023-05-14T02:45:34.697Z,7.89
2023-05-14T02:50:42.023Z,7.83
2023-05-14T02:55:49.385Z,7.77
2023-05-14T03:00:56.976Z,7.72
2023-05-14T03:06:05.216Z,7.67
2023-05-14T03:11:13.093Z,7.64
2023-05-14T03:16:20.775Z,7.60
2023-05-14T03:21:28.243Z,7.57
2023-05-14T03:26:35.571Z,7.55
2023-05-14T03:31:42.989Z,7.54
2023-05-14T03:36:50.951Z,7.54
2023-05-14T03:41:59.352Z,7.55
2023-05-14T03:47:07.909Z,7.60
2023-05-14T03:52:15.389Z,7.80
2023-05-14T03:57:24.309Z,8.21
2023-05-14T04:02:31.672Z,8.56
2023-05-14T04:07:39.077Z,8.86
2023-05-14T04:12:46.560Z,9.12
2023-05-14T04:17:54.231Z,9.36
2023-05-14T04:23:01.563Z,9.61
2023-05-14T04:28:09.166Z,9.86
2023-05-14T04:33:16.411Z,10.17
2023-05-14T04:38:24.183Z,10.53
2023-05-14T04:43:31.506Z,10.94
2023-05-14T04:48:39.146Z,11.39
2023-05-14T04:53:46.956Z,11.86
2023-05-14T04:58:54.543Z,12.35
2023-05-14T05:04:01.893Z,12.84
2023-05-14T05:09:10.468Z,13.38
2023-05-14T05:14:17.868Z,13.92
2023-05-14T05:19:35.746Z,14.46
2023-05-14T05:24:49.812Z,14.99
2023-05-14T05:29:57.931Z,15.49
2023-05-14T05:35:05.624Z,15.97
2023-05-14T05:40:14.782Z,16.44
2023-05-14T05:45:22.642Z,16.89
2023-05-14T05:50:30.513Z,17.30
2023-05-14T05:55:38.212Z,17.54
2023-05-14T06:00:45.870Z,17.63
2023-05-14T06:05:53.590Z,17.76
2023-05-14T06:11:01.131Z,17.91
2023-05-14T06:16:09.355Z,18.06
2023-05-14T06:21:16.764Z,18.20
2023-05-14T06:26:24.784Z,18.35
2023-05-14T06:31:32.361Z,18.52
2023-05-14T06:36:39.905Z,18.69
2023-05-14T06:41:47.463Z,18.92
2023-05-14T06:46:55.382Z,19.19
2023-05-14T06:52:04.467Z,19.49
2023-05-14T06:57:12.383Z,19.78
2023-05-14T07:02:20.651Z,20.03
2023-05-14T07:07:28.489Z,20.24
2023-05-14T07:12:37.284Z,20.41
2023-05-14T07:17:44.777Z,20.55
2023-05-14T07:22:52.967Z,20.69
2023-05-14T07:28:00.499Z,20.81
2023-05-14T07:33:08.134Z,20.95
2023-05-14T07:38:16.066Z,21.10
2023-05-14T07:43:24.082Z,21.28
2023-05-14T07:48:31.914Z,21.50
2023-05-14T07:53:39.893Z,21.77
2023-05-14T07:58:47.766Z,22.01
2023-05-14T08:03:55.579Z,22.22
2023-05-14T08:09:05.837Z,22.41
2023-05-14T08:14:13.778Z,22.55
2023-05-14T08:19:21.872Z,22.65
2023-05-14T08:24:30.588Z,22.74
2023-05-14T08:29:38.467Z,22.81
2023-05-14T08:34:45.948Z,22.89
2023-05-14T08:39:54.449Z,22.94
2023-05-14T08:45:05.133Z,23.01
2023-05-14T08:50:13.814Z,23.07
2023-05-14T08:55:21.903Z,23.11
2023-05-14T09:00:29.884Z,23.14
2023-05-14T09:05:37.453Z,23.17
2023-05-14T09:10:44.963Z,23.19
2023-05-14T09:15:53.491Z,23.20
2023-05-14T09:21:02.368Z,23.20
2023-05-14T09:26:11.069Z,23.20
2023-05-14T09:31:18.611Z,23.20
2023-05-14T09:36:27.826Z,23.22
2023-05-14T09:41:35.149Z,23.27
2023-05-14T09:46:42.689Z,23.32
2023-05-14T09:51:50.706Z,23.37
2023-05-14T09:56:58.397Z,23.45
2023-05-14T10:02:07.268Z,23.51
2023-05-14T10:07:16.996Z,23.58
2023-05-14T10:12:31.352Z,23.67
2023-05-14T10:17:43.239Z,23.77
2023-05-14T10:22:50.801Z,23.86
2023-05-14T10:27:58.711Z,23.93
2023-05-14T10:33:14.725Z,23.98
2023-05-14T10:38:31.157Z,24.00
2023-05-14T10:43:41.943Z,24.00
2023-05-14T10:48:50.679Z,24.00
2023-05-14T10:53:59.071Z,24.00
2023-05-14T10:59:08.386Z,23.99
2023-05-14T11:04:25.373Z,23.99
2023-05-14T11:09:34.203Z,24.02
2023-05-14T11:14:41.879Z,24.04
2023-05-14T11:19:51.080Z,24.04
2023-05-14T11:24:59.822Z,24.05
2023-05-14T11:30:14.418Z,24.05
2023-05-14T11:35:22.020Z,24.05
2023-05-14T11:40:29.556Z,24.05
2023-05-14T11:45:38.473Z,24.06
2023-05-14T11:50:49.296Z,24.09
2023-05-14T11:55:58.775Z,24.12
2023-05-14T12:01:06.628Z,24.13
2023-05-14T12:06:13.993Z,24.13
2023-05-14T12:11:24.667Z,24.12
2023-05-14T12:16:36.907Z,24.11
2023-05-14T12:21:48.115Z,24.11
2023-05-14T12:26:55.992Z,24.07
2023-05-14T12:32:05.082Z,24.05
2023-05-14T12:37:12.835Z,24.04
2023-05-14T12:42:20.425Z,24.06
2023-05-14T12:47:28.288Z,24.10
2023-05-14T12:52:39.661Z,24.16
2023-05-14T12:57:48.497Z,24.23
2023-05-14T13:02:56.396Z,24.28
2023-05-14T13:08:04.847Z,24.34
2023-05-14T13:13:15.342Z,24.37
2023-05-14T13:18:27.864Z,24.38
2023-05-14T13:23:35.852Z,24.39
2023-05-14T13:28:43.311Z,24.42
2023-05-14T13:33:50.831Z,24.46
2023-05-14T13:38:58.627Z,24.52
2023-05-14T13:44:06.790Z,24.56
2023-05-14T13:49:14.368Z,24.61
2023-05-14T13:54:21.859Z,24.64
2023-05-14T13:59:30.207Z,24.65
2023-05-14T14:04:38.127Z,24.68
2023-05-14T14:09:45.619Z,24.70
2023-05-14T14:14:53.425Z,24.71
2023-05-14T14:20:00.860Z,24.73
2023-05-14T14:25:09.630Z,24.75
2023-05-14T14:30:17.978Z,24.76
2023-05-14T14:35:25.787Z,24.78
2023-05-14T14:40:34.600Z,24.77
2023-05-14T14:45:43.265Z,24.75
2023-05-14T14:50:50.857Z,24.71
2023-05-14T14:55:59.084Z,24.69
2023-05-14T15:01:06.747Z,24.67
2023-05-14T15:06:14.651Z,24.64
2023-05-14T15:11:22.721Z,24.61
2023-05-14T15:16:30.240Z,24.57
2023-05-14T15:21:38.269Z,24.54
2023-05-14T15:26:46.667Z,24.51
2023-05-14T15:31:54.484Z,24.46
2023-05-14T15:37:02.062Z,24.42
2023-05-14T15:42:10.647Z,24.39
2023-05-14T15:47:18.523Z,24.37
2023-05-14T15:52:26.265Z,24.34
2023-05-14T15:57:33.770Z,24.33
2023-05-14T16:02:41.871Z,24.31
2023-05-14T16:07:49.731Z,24.30
2023-05-14T16:13:01.110Z,24.28
2023-05-14T16:18:09.043Z,24.26
2023-05-14T16:23:16.613Z,24.24
2023-05-14T16:28:23.926Z,24.23
2023-05-14T16:33:31.517Z,24.21
2023-05-14T16:38:44.727Z,24.18
2023-05-14T16:44:00.649Z,24.14
2023-05-14T16:49:08.206Z,24.10
2023-05-14T16:54:17.956Z,24.04
2023-05-14T16:59:26.064Z,23.98
2023-05-14T17:04:33.873Z,23.91
2023-05-14T17:09:42.959Z,23.85
2023-05-14T17:14:50.572Z,23.78
2023-05-14T17:19:58.657Z,23.72
2023-05-14T17:25:06.733Z,23.63
2023-05-14T17:30:15.536Z,23.56
2023-05-14T17:35:24.321Z,23.46
2023-05-14T17:40:31.868Z,23.37
2023-05-14T17:45:53.185Z,23.27
2023-05-14T17:51:02.356Z,23.16
2023-05-14T17:56:10.929Z,23.05
2023-05-14T18:01:18.878Z,22.93
2023-05-14T18:06:27.024Z,22.80
2023-05-14T18:11:35.099Z,22.66
2023-05-14T18:16:43.415Z,22.53
2023-05-14T18:21:51.738Z,22.39
2023-05-14T18:26:59.529Z,22.25
2023-05-14T18:32:09.234Z,22.09
2023-05-14T18:37:17.354Z,21.92
2023-05-14T18:42:25.392Z,21.73
2023-05-14T18:47:33.393Z,21.51
2023-05-14T18:52:40.924Z,21.28
2023-05-14T18:57:49.474Z,21.02
2023-05-14T19:02:58.696Z,20.76
2023-05-14T19:08:06.802Z,20.48
2023-05-14T19:13:18.344Z,20.21
2023-05-14T19:18:26.182Z,19.93
2023-05-14T19:23:34.029Z,19.64
2023-05-14T19:28:43.436Z,19.36
2023-05-14T19:33:51.943Z,19.07
2023-05-14T19:39:06.500Z,18.76
2023-05-14T19:44:14.023Z,18.48
2023-05-14T19:49:21.381Z,18.21
2023-05-14T19:54:29.425Z,17.95
2023-05-14T19:59:38.809Z,17.70
2023-05-14T20:04:46.488Z,17.43
2023-05-14T20:09:54.315Z,17.19
2023-05-14T20:15:02.382Z,16.95
2023-05-14T20:20:12.475Z,16.73
2023-05-14T20:25:20.595Z,16.51
2023-05-14T20:30:27.891Z,16.31
2023-05-14T20:35:35.274Z,16.11
2023-05-14T20:40:45.014Z,15.94
2023-05-14T20:45:54.815Z,15.77
2023-05-14T20:51:05.359Z,15.61
2023-05-14T20:56:12.886Z,15.47
2023-05-14T21:01:21.364Z,15.33
2023-05-14T21:06:29.069Z,15.22
2023-05-14T21:11:36.763Z,15.12
2023-05-14T21:16:45.337Z,15.05
2023-05-14T21:21:53.564Z,14.99
2023-05-14T21:27:00.861Z,14.96
2023-05-14T21:32:10.622Z,14.93
2023-05-14T21:37:18.675Z,14.91
2023-05-14T21:42:26.941Z,14.90
2023-05-14T21:47:36.666Z,14.88
2023-05-14T21:52:45.702Z,14.85
2023-05-14T21:57:54.089Z,14.81
2023-05-14T22:03:02.249Z,14.77
2023-05-14T22:08:11.178Z,14.73
2023-05-14T22:13:19.348Z,14.68
2023-05-14T22:18:29.120Z,14.64
2023-05-14T22:23:37.663Z,14.62
2023-05-14T22:28:46.504Z,14.60
2023-05-14T22:33:54.762Z,14.58
2023-05-14T22:39:04.180Z,14.57
2023-05-14T22:44:11.905Z,14.57
2023-05-14T22:49:19.658Z,14.59
2023-05-14T22:54:27.940Z,14.62
2023-05-14T22:59:35.416Z,14.65
2023-05-14T23:04:43.327Z,14.70
2023-05-14T23:09:52.325Z,14.76
2023-05-14T23:15:01.560Z,14.81
2023-05-14T23:20:14.685Z,14.84
2023-05-14T23:25:22.455Z,14.88
2023-05-14T23:30:30.026Z,14.90
2023-05-14T23:35:37.574Z,14.91
2023-05-14T23:40:44.881Z,14.92
2023-05-14T23:45:52.306Z,14.91
2023-05-14T23:50:59.958Z,14.90
2023-05-14T23:56:08.499Z,14.88
